Time;durP1;ratioP1;P1;durP2;ratioP2;P2;SDS_P1;SDS_P2;PMS_P1;PMS_P2;Temp;Humidity;BMP_temperature;BMP_pressure;BME280_temperature;BME280_humidity;BME280_pressure;Samples;Min_cycle;Max_cycle;Signal;HPM_P1;HPM_P2
2023/07/22 00:01:32;;;;;;;;;8.00;6.00;;;;;27.79;30.61;101467.59;5097883;27;45746;-79
2023/07/22 00:03:57;;;;;;;;;7.33;5.33;;;;;28.06;30.75;101511.25;5097396;27;45490;-80
2023/07/22 00:06:23;;;;;;;;;6.75;6.00;;;;;28.08;31.14;101503.00;5097337;27;46700;-79
2023/07/22 00:08:49;;;;;;;;;6.00;6.00;;;;;28.09;31.36;101509.19;5096134;27;45382;-79
2023/07/22 00:11:14;;;;;;;;;6.00;5.33;;;;;27.93;30.41;101471.13;5097300;27;45393;-80
2023/07/22 00:13:40;;;;;;;;;8.67;7.67;;;;;28.10;30.52;101495.63;5097299;27;45476;-79
2023/07/22 00:16:07;;;;;;;;;7.00;7.00;;;;;27.89;30.51;101464.53;5097527;27;46213;-79
2023/07/22 00:18:33;;;;;;;;;6.00;5.67;;;;;28.07;30.50;101496.03;5096670;27;45343;-79
2023/07/22 00:20:59;;;;;;;;;5.00;4.33;;;;;27.90;30.56;101468.84;5097237;27;45525;-80
2023/07/22 00:23:24;;;;;;;;;10.00;8.00;;;;;28.13;31.16;101505.88;5097236;27;45503;-79
2023/07/22 00:25:50;;;;;;;;;7.33;6.00;;;;;28.05;31.10;101487.38;5097406;27;45462;-79
2023/07/22 00:28:15;;;;;;;;;7.33;6.33;;;;;27.77;30.63;101442.91;5096197;27;45434;-79
2023/07/22 00:30:41;;;;;;;;;7.33;6.33;;;;;28.12;31.04;101492.72;5097175;27;45310;-79
2023/07/22 00:33:07;;;;;;;;;5.33;5.33;;;;;27.99;30.95;101482.84;5097606;27;45547;-80
2023/07/22 00:35:32;;;;;;;;;5.00;5.00;;;;;28.15;31.30;101508.38;5097023;27;47480;-79
2023/07/22 00:37:58;;;;;;;;;5.67;5.67;;;;;28.11;31.21;101497.25;5097004;27;45206;-79
2023/07/22 00:40:24;;;;;;;;;7.00;6.00;;;;;28.13;31.39;101500.53;5097383;27;45226;-80
2023/07/22 00:42:50;;;;;;;;;7.00;6.00;;;;;28.09;31.27;101495.81;5097054;27;45309;-80
2023/07/22 00:45:15;;;;;;;;;8.00;7.00;;;;;27.84;31.07;101455.28;5096181;27;45546;-80
2023/07/22 00:47:41;;;;;;;;;5.67;5.67;;;;;27.79;31.34;101444.34;5097208;27;45444;-80
2023/07/22 00:50:07;;;;;;;;;5.33;4.00;;;;;28.15;31.58;101498.50;5096732;27;45365;-80
2023/07/22 00:52:34;;;;;;;;;4.33;4.33;;;;;28.05;31.01;101479.34;5096593;27;45410;-79
2023/07/22 00:54:59;;;;;;;;;8.00;7.33;;;;;28.12;30.89;101493.53;5096642;27;46282;-80
2023/07/22 00:57:25;;;;;;;;;6.00;6.00;;;;;28.10;31.42;101478.72;5096996;27;45372;-80
2023/07/22 00:59:51;;;;;;;;;6.67;6.67;;;;;28.17;31.43;101483.06;5096664;27;45307;-80
2023/07/22 01:02:18;;;;;;;;;6.67;5.33;;;;;27.92;31.43;101442.75;5096831;27;45417;-80
2023/07/22 01:04:43;;;;;;;;;6.67;6.67;;;;;28.15;30.77;101478.94;5096430;27;46649;-80
2023/07/22 01:07:10;;;;;;;;;6.00;6.00;;;;;28.18;31.18;101478.53;5096489;27;45306;-80
2023/07/22 01:09:40;;;;;;;;;7.33;6.00;;;;;28.02;31.59;101453.03;5096878;27;45395;-80
2023/07/22 01:12:06;;;;;;;;;7.33;6.67;;;;;28.19;31.25;101474.81;5097209;27;45562;-80
2023/07/22 01:14:41;;;;;;;;;9.33;6.00;;;;;28.18;31.18;101476.66;5096148;27;46392;-79
2023/07/22 01:17:09;;;;;;;;;6.67;6.00;;;;;28.19;31.23;101469.47;5096271;27;45357;-80
2023/07/22 01:19:35;;;;;;;;;6.00;5.00;;;;;28.17;31.25;101463.50;5096429;27;45356;-80
2023/07/22 01:22:08;;;;;;;;;7.33;6.67;;;;;27.99;31.25;101438.22;5094913;27;45422;-81
2023/07/22 01:24:34;;;;;;;;;7.00;6.00;;;;;28.20;31.20;101470.28;5096660;27;46338;-80
2023/07/22 01:27:00;;;;;;;;;7.33;6.00;;;;;28.17;31.02;101468.84;5096355;27;45289;-80
2023/07/22 01:29:26;;;;;;;;;7.00;6.00;;;;;28.21;31.22;101478.09;5096285;27;45382;-80
2023/07/22 01:31:53;;;;;;;;;6.33;6.00;;;;;27.99;31.26;101435.53;5096203;27;45439;-80
2023/07/22 01:34:19;;;;;;;;;4.33;4.33;;;;;28.20;31.62;101465.75;5095904;27;46360;-80
2023/07/22 01:36:48;;;;;;;;;7.00;7.00;;;;;28.12;31.10;101449.91;5096165;27;45365;-79
2023/07/22 01:39:18;;;;;;;;;7.00;7.00;;;;;27.88;31.42;101418.25;5096287;27;45367;-79
2023/07/22 01:41:44;;;;;;;;;7.00;6.00;;;;;28.22;31.50;101476.25;5096071;27;45599;-80
2023/07/22 01:44:09;;;;;;;;;6.00;6.00;;;;;28.20;31.60;101462.25;5095432;27;45462;-80
2023/07/22 01:46:36;;;;;;;;;4.33;4.33;;;;;28.00;31.12;101431.00;5096481;27;45361;-80
2023/07/22 01:49:03;;;;;;;;;8.33;5.00;;;;;28.22;31.19;101471.72;5096170;27;45379;-80
2023/07/22 01:51:29;;;;;;;;;7.33;7.33;;;;;28.22;31.22;101463.69;5095709;27;45462;-80
2023/07/22 01:53:56;;;;;;;;;7.33;7.33;;;;;28.22;31.55;101460.19;5095790;27;46090;-80
2023/07/22 01:56:22;;;;;;;;;6.00;6.00;;;;;28.16;31.30;101451.97;5095864;27;45421;-80
2023/07/22 01:58:47;;;;;;;;;7.67;6.00;;;;;28.21;31.76;101464.72;5099051;27;45360;-80
2023/07/22 02:01:16;;;;;;;;;6.00;6.00;;;;;28.16;31.85;101457.31;5099838;27;45288;-80
2023/07/22 02:03:45;;;;;;;;;10.67;8.00;;;;;28.19;31.25;101458.75;5099281;27;47019;-80
2023/07/22 02:06:10;;;;;;;;;9.00;8.33;;;;;28.21;31.86;101451.34;5099257;27;45396;-80
2023/07/22 02:08:36;;;;;;;;;6.67;6.67;;;;;28.14;31.74;101440.66;5099476;27;45380;-79
2023/07/22 02:11:06;;;;;;;;;6.33;6.00;;;;;28.21;31.43;101451.34;5099264;27;45389;-80
2023/07/22 02:13:33;;;;;;;;;6.00;6.00;;;;;28.21;31.69;101446.00;5097773;27;47362;-79
2023/07/22 02:15:59;;;;;;;;;5.33;5.00;;;;;28.19;31.56;101440.03;5099141;27;45300;-80
2023/07/22 02:18:25;;;;;;;;;5.67;5.67;;;;;28.20;31.58;101444.38;5099257;27;45393;-80
2023/07/22 02:20:50;;;;;;;;;7.50;7.00;;;;;28.22;31.68;101447.66;5099349;27;45462;-79
2023/07/22 02:23:16;;;;;;;;;4.67;4.67;;;;;27.80;31.75;101381.03;5099245;27;45477;-80
2023/07/22 02:25:42;;;;;;;;;4.33;4.33;;;;;28.23;31.47;101445.81;5099257;27;45341;-79
2023/07/22 02:28:07;;;;;;;;;5.67;5.33;;;;;28.10;32.18;101433.25;5098645;27;45241;-79
2023/07/22 02:30:37;;;;;;;;;4.67;4.00;;;;;28.23;31.64;101441.28;5099054;27;45283;-79
2023/07/22 02:33:03;;;;;;;;;8.33;7.00;;;;;28.11;31.83;101435.72;5099062;27;45642;-79
2023/07/22 02:35:29;;;;;;;;;6.00;6.00;;;;;28.23;31.70;101440.44;5099013;27;45270;-78
2023/07/22 02:37:54;;;;;;;;;5.00;4.67;;;;;28.23;31.97;101446.63;5099263;27;45338;-79
2023/07/22 02:40:19;;;;;;;;;6.33;6.33;;;;;28.18;31.90;101433.06;5097540;27;45335;-79
2023/07/22 02:42:45;;;;;;;;;5.00;5.00;;;;;28.16;32.37;101433.25;5098373;27;46499;-79
2023/07/22 02:45:10;;;;;;;;;7.00;5.00;;;;;28.16;32.14;101441.25;5098972;27;45254;-79
2023/07/22 02:47:36;;;;;;;;;6.00;6.00;;;;;28.21;32.04;101426.47;5098758;27;45349;-79
2023/07/22 02:50:03;;;;;;;;;6.00;6.00;;;;;28.18;31.74;101425.81;5098753;27;45380;-79
2023/07/22 02:52:28;;;;;;;;;5.67;5.67;;;;;28.14;31.65;101413.09;5098379;27;46061;-79
2023/07/22 02:55:12;;;;;;;;;6.67;6.67;;;;;28.23;32.49;101429.75;5098498;27;45511;-79
2023/07/22 02:57:39;;;;;;;;;6.00;6.00;;;;;27.97;31.79;101397.50;5098524;27;45761;-79
2023/07/22 03:00:08;;;;;;;;;6.67;5.00;;;;;28.23;32.31;101438.59;5098493;27;45369;-79
2023/07/22 03:02:37;;;;;;;;;7.00;7.00;;;;;28.17;31.64;101429.56;5098350;27;46769;-79
2023/07/22 03:05:09;;;;;;;;;6.33;5.67;;;;;28.23;32.13;101435.94;5098346;27;45351;-79
2023/07/22 03:07:36;;;;;;;;;4.33;4.33;;;;;28.22;31.72;101436.94;5096916;27;45375;-79
2023/07/22 03:10:01;;;;;;;;;9.00;6.00;;;;;28.23;31.67;101435.09;5098437;27;45396;-79
2023/07/22 03:12:27;;;;;;;;;6.33;6.33;;;;;28.11;32.26;101427.69;5097822;27;45478;-79
2023/07/22 03:14:53;;;;;;;;;5.00;5.00;;;;;28.07;32.03;101429.97;5098610;27;45410;-79
2023/07/22 03:17:18;;;;;;;;;7.00;7.00;;;;;28.06;32.54;101420.31;5098586;27;45412;-79
2023/07/22 03:19:44;;;;;;;;;4.67;4.67;;;;;27.97;32.28;101405.50;5098398;27;45350;-79
2023/07/22 03:22:11;;;;;;;;;4.00;4.00;;;;;28.07;32.45;101423.81;5098285;27;45397;-79
2023/07/22 03:24:36;;;;;;;;;6.00;6.00;;;;;28.04;32.28;101416.19;5098584;27;45487;-79
2023/07/22 03:27:01;;;;;;;;;4.00;4.00;;;;;28.07;32.24;101423.81;5097960;27;45332;-79
2023/07/22 03:29:27;;;;;;;;;7.00;4.33;;;;;28.19;32.07;101442.72;5098442;27;45354;-79
2023/07/22 03:31:53;;;;;;;;;7.67;6.33;;;;;27.46;31.90;101324.88;5097959;27;45697;-79
2023/07/22 03:34:18;;;;;;;;;4.67;4.33;;;;;27.88;31.97;101394.19;5097963;27;45353;-79
2023/07/22 03:36:44;;;;;;;;;6.33;5.00;;;;;28.24;32.17;101447.44;5098173;27;45299;-79
2023/07/22 03:39:09;;;;;;;;;5.33;5.33;;;;;28.13;32.34;101433.66;5098020;27;45289;-79
2023/07/22 03:41:34;;;;;;;;;7.00;7.00;;;;;28.23;32.44;101441.28;5097481;27;47013;-79
2023/07/22 03:43:59;;;;;;;;;7.00;5.00;;;;;28.10;32.08;101423.41;5097776;27;45392;-80
2023/07/22 03:46:25;;;;;;;;;6.00;5.00;;;;;27.71;32.57;101372.38;5098705;27;45344;-79
2023/07/22 03:48:50;;;;;;;;;6.75;5.00;;;;;28.23;31.96;101448.47;5097892;27;45615;-79
2023/07/22 03:51:15;;;;;;;;;7.00;5.67;;;;;28.20;32.13;101446.22;5097623;27;45352;-80
2023/07/22 03:53:41;;;;;;;;;6.00;6.00;;;;;28.10;32.42;101441.28;5097178;27;45235;-78
2023/07/22 03:56:06;;;;;;;;;3.00;3.00;;;;;28.05;32.21;101425.88;5097910;27;45298;-78
2023/07/22 03:58:31;;;;;;;;;6.00;4.00;;;;;28.06;32.51;101431.00;5097768;27;45453;-79
2023/07/22 04:00:57;;;;;;;;;5.00;5.00;;;;;28.16;32.39;101441.25;5097578;27;47257;-79
2023/07/22 04:03:22;;;;;;;;;7.33;7.33;;;;;28.06;32.31;101425.66;5097730;27;45309;-79
2023/07/22 04:05:57;;;;;;;;;6.67;6.67;;;;;27.90;32.46;101404.66;5098075;27;45437;-80
2023/07/22 04:08:22;;;;;;;;;5.00;5.00;;;;;28.00;32.54;101426.47;5097131;27;45468;-79
2023/07/22 04:10:54;;;;;;;;;5.00;5.00;;;;;28.16;32.69;101451.13;5097183;27;45440;-79
2023/07/22 04:13:20;;;;;;;;;5.67;5.67;;;;;28.21;32.67;101462.03;5097861;27;45495;-79
2023/07/22 04:15:46;;;;;;;;;6.00;5.00;;;;;28.21;32.74;101463.91;5097740;27;45353;-79
2023/07/22 04:18:11;;;;;;;;;5.00;5.00;;;;;28.14;32.47;101459.38;5097369;27;45514;-79
2023/07/22 04:20:36;;;;;;;;;5.33;4.00;;;;;28.10;32.45;101452.00;5096204;27;46379;-79
2023/07/22 04:23:02;;;;;;;;;5.33;5.33;;;;;28.21;32.08;101463.91;5096869;27;45421;-79
2023/07/22 04:25:27;;;;;;;;;2.33;2.00;;;;;28.15;32.19;101461.03;5097556;27;45394;-79
2023/07/22 04:27:52;;;;;;;;;4.67;4.67;;;;;28.21;32.25;101459.38;5097265;27;45358;-79
2023/07/22 04:30:20;;;;;;;;;4.67;4.67;;;;;28.14;32.76;101456.72;5097063;27;45425;-79
2023/07/22 04:32:49;;;;;;;;;4.00;4.00;;;;;28.11;32.65;101443.75;5096921;27;45212;-79
2023/07/22 04:35:17;;;;;;;;;5.00;5.00;;;;;28.11;31.98;101448.25;5097081;27;45337;-78
2023/07/22 04:37:42;;;;;;;;;4.00;4.00;;;;;28.04;32.60;101433.06;5096920;27;45535;-79
2023/07/22 04:40:11;;;;;;;;;7.33;5.67;;;;;28.17;32.57;101455.47;5096898;27;45450;-78
2023/07/22 04:42:36;;;;;;;;;5.67;5.00;;;;;28.17;32.69;101453.63;5097295;27;45326;-79
2023/07/22 04:45:02;;;;;;;;;4.67;4.67;;;;;28.23;32.17;101451.16;5097004;27;45370;-79
2023/07/22 04:47:28;;;;;;;;;4.00;4.00;;;;;27.96;32.74;101415.38;5097368;27;45253;-78
2023/07/22 04:49:53;;;;;;;;;4.67;4.67;;;;;28.23;32.65;101451.97;5096807;27;45350;-79
2023/07/22 04:52:19;;;;;;;;;5.33;5.00;;;;;28.23;32.65;101451.16;5096108;27;45537;-79
2023/07/22 04:54:47;;;;;;;;;5.67;5.67;;;;;28.23;32.73;101446.63;5096852;27;45318;-79
2023/07/22 04:57:12;;;;;;;;;4.33;3.00;;;;;28.19;32.19;101429.34;5096716;27;45378;-80
2023/07/22 04:59:38;;;;;;;;;6.67;6.00;;;;;28.02;32.66;101400.34;5096444;27;45706;-79
2023/07/22 05:02:03;;;;;;;;;6.50;5.75;;;;;28.17;32.44;101434.06;5096604;27;45364;-79
2023/07/22 05:04:29;;;;;;;;;5.00;5.00;;;;;28.26;32.84;101434.69;5096818;27;45302;-79
2023/07/22 05:06:54;;;;;;;;;6.00;5.00;;;;;28.26;32.74;101426.66;5096565;27;45349;-78
2023/07/22 05:09:20;;;;;;;;;4.67;4.00;;;;;28.05;32.59;101396.44;5096588;27;45398;-79
2023/07/22 05:11:45;;;;;;;;;5.00;4.00;;;;;28.23;32.74;101432.41;5096691;27;45298;-79
2023/07/22 05:14:11;;;;;;;;;5.00;4.00;;;;;28.10;32.54;101404.66;5096630;27;45319;-79
2023/07/22 05:16:36;;;;;;;;;5.33;4.33;;;;;28.22;32.79;101431.59;5096589;27;45359;-80
2023/07/22 05:19:01;;;;;;;;;5.00;5.00;;;;;28.28;32.44;101436.13;5096229;27;45337;-79
2023/07/22 05:21:27;;;;;;;;;5.00;5.00;;;;;28.06;32.34;101401.56;5095986;27;45264;-79
2023/07/22 05:23:52;;;;;;;;;6.00;5.67;;;;;28.25;32.29;101422.31;5096532;27;45240;-78
2023/07/22 05:26:17;;;;;;;;;4.33;4.33;;;;;28.17;32.75;101416.19;5096614;27;45306;-79
2023/07/22 05:28:43;;;;;;;;;5.00;4.67;;;;;28.17;32.90;101416.19;5094757;27;47227;-79
2023/07/22 05:31:08;;;;;;;;;4.00;3.67;;;;;28.34;32.82;101441.66;5097061;27;45335;-78
2023/07/22 05:33:34;;;;;;;;;5.00;5.00;;;;;28.34;32.72;101433.66;5100434;27;45321;-80
2023/07/22 05:35:59;;;;;;;;;3.33;3.33;;;;;28.25;32.79;101422.31;5099545;27;45349;-79
2023/07/22 05:38:24;;;;;;;;;4.67;4.67;;;;;28.22;32.88;101415.53;5099800;27;45347;-79
2023/07/22 05:40:52;;;;;;;;;7.33;5.00;;;;;28.31;32.65;101426.84;5099876;27;45340;-78
2023/07/22 05:43:17;;;;;;;;;3.67;3.67;;;;;28.34;32.41;101425.63;5100058;27;45384;-79
2023/07/22 05:45:43;;;;;;;;;6.33;5.00;;;;;28.21;32.82;101413.09;5099921;27;45966;-79
2023/07/22 05:48:08;;;;;;;;;5.00;5.00;;;;;28.21;32.61;101408.53;5099694;27;47228;-79
2023/07/22 05:50:34;;;;;;;;;3.67;3.67;;;;;28.18;32.27;101396.41;5099612;27;45991;-78
2023/07/22 05:52:59;;;;;;;;;4.00;4.00;;;;;27.79;32.67;101340.06;5099646;27;45495;-79
2023/07/22 05:55:24;;;;;;;;;5.33;5.00;;;;;28.25;32.88;101406.28;5099787;27;45396;-78
2023/07/22 05:57:50;;;;;;;;;5.00;4.00;;;;;28.37;32.51;101423.31;5099798;27;45457;-78
2023/07/22 06:00:15;;;;;;;;;5.00;4.00;;;;;28.37;32.61;101423.31;5099546;27;45407;-79
2023/07/22 06:02:41;;;;;;;;;5.00;5.00;;;;;28.14;32.36;101405.88;5099615;27;45319;-79
2023/07/22 06:05:07;;;;;;;;;4.00;3.67;;;;;28.44;32.88;101435.88;5099645;27;45219;-79
2023/07/22 06:07:33;;;;;;;;;5.33;5.33;;;;;28.35;32.67;101429.91;5097871;27;47036;-79
2023/07/22 06:09:58;;;;;;;;;4.33;4.33;;;;;28.40;32.55;101430.94;5099505;27;45333;-79
2023/07/22 06:12:23;;;;;;;;;5.00;3.67;;;;;28.43;32.81;101431.53;5099356;27;45244;-79
2023/07/22 06:14:49;;;;;;;;;5.00;5.00;;;;;28.38;32.72;101424.16;5099190;27;46932;-79
2023/07/22 06:17:15;;;;;;;;;4.33;4.33;;;;;28.11;32.77;101376.88;5099157;27;46121;-79
2023/07/22 06:19:40;;;;;;;;;5.00;5.00;;;;;28.63;32.52;101450.25;5098387;27;45353;-79
2023/07/22 06:22:05;;;;;;;;;4.33;4.33;;;;;28.68;32.90;101444.25;5099284;27;45921;-79
2023/07/22 06:24:31;;;;;;;;;4.33;4.33;;;;;28.71;32.67;101438.47;5099235;27;45299;-78
2023/07/22 06:26:56;;;;;;;;;5.00;5.00;;;;;28.60;32.57;101430.06;5099342;27;46302;-79
2023/07/22 06:29:21;;;;;;;;;5.00;4.00;;;;;28.76;32.36;101445.88;5098973;27;45356;-79
2023/07/22 06:31:47;;;;;;;;;3.00;3.00;;;;;28.54;32.45;101417.56;5099037;27;45422;-79
2023/07/22 06:34:13;;;;;;;;;6.00;5.00;;;;;28.48;32.13;101405.84;5098597;27;45533;-79
2023/07/22 06:36:38;;;;;;;;;6.00;4.00;;;;;28.73;32.47;101445.28;5098867;27;46357;-79
2023/07/22 06:39:03;;;;;;;;;5.00;5.00;;;;;28.72;32.59;101456.19;5099101;27;45332;-79
2023/07/22 06:41:29;;;;;;;;;4.33;4.33;;;;;28.71;32.45;101441.16;5099171;27;45276;-79
2023/07/22 06:43:55;;;;;;;;;3.67;3.67;;;;;28.51;32.34;101413.44;5098460;27;45325;-79
2023/07/22 06:46:21;;;;;;;;;4.00;4.00;;;;;28.64;32.69;101433.16;5098914;27;46139;-78
2023/07/22 06:48:47;;;;;;;;;4.00;4.00;;;;;28.72;32.41;101448.16;5098419;27;45422;-79
2023/07/22 06:51:12;;;;;;;;;5.00;5.00;;;;;28.66;32.63;101441.81;5098600;27;45436;-79
2023/07/22 06:53:38;;;;;;;;;4.00;4.00;;;;;28.46;32.32;101404.41;5098471;27;45623;-79
2023/07/22 06:56:03;;;;;;;;;5.33;5.33;;;;;28.64;32.78;101435.84;5098538;27;46601;-78
2023/07/22 06:58:29;;;;;;;;;3.33;2.33;;;;;27.69;32.92;101289.72;5098689;27;45301;-79
2023/07/22 07:00:55;;;;;;;;;5.00;5.00;;;;;28.48;32.73;101413.03;5098663;27;45379;-79
2023/07/22 07:03:21;;;;;;;;;3.33;3.33;;;;;28.67;32.61;101435.44;5098328;27;45657;-79
2023/07/22 07:05:52;;;;;;;;;5.00;5.00;;;;;28.69;32.63;101446.75;5098327;27;45442;-79
2023/07/22 07:08:19;;;;;;;;;3.00;3.00;;;;;28.61;32.90;101425.53;5098523;27;45250;-78
2023/07/22 07:10:44;;;;;;;;;3.33;3.00;;;;;28.72;32.68;101445.50;5098654;27;45386;-79
2023/07/22 07:13:09;;;;;;;;;3.33;3.33;;;;;28.74;32.95;101446.91;5098465;27;45367;-80
2023/07/22 07:15:35;;;;;;;;;3.67;3.00;;;;;28.80;33.09;101447.94;5098283;27;46425;-79
2023/07/22 07:18:00;;;;;;;;;4.33;4.33;;;;;28.84;32.74;101433.06;5097713;27;45273;-79
2023/07/22 07:20:25;;;;;;;;;5.00;5.00;;;;;28.90;32.63;101433.25;5098541;27;45287;-79
2023/07/22 07:22:50;;;;;;;;;3.00;3.00;;;;;28.94;32.70;101435.28;5098595;27;45547;-80
2023/07/22 07:25:16;;;;;;;;;4.00;4.00;;;;;28.92;32.54;101417.78;5098308;27;46267;-78
2023/07/22 07:27:41;;;;;;;;;3.00;3.00;;;;;28.98;32.56;101427.66;5098514;27;45376;-79
2023/07/22 07:30:08;;;;;;;;;7.00;5.00;;;;;28.82;32.57;101391.47;5098394;27;45669;-78
2023/07/22 07:32:34;;;;;;;;;4.00;4.00;;;;;29.08;32.39;101424.50;5097810;27;45477;-79
2023/07/22 07:34:59;;;;;;;;;4.33;4.33;;;;;29.05;32.75;101431.13;5097988;27;46135;-79
2023/07/22 07:37:24;;;;;;;;;3.00;3.00;;;;;29.08;32.04;101427.19;5097889;27;45278;-79
2023/07/22 07:39:50;;;;;;;;;3.33;3.33;;;;;29.04;32.63;101423.31;5098081;27;45805;-78
2023/07/22 07:42:15;;;;;;;;;4.00;4.00;;;;;29.20;32.76;101440.75;5096890;27;45553;-79
2023/07/22 07:44:40;;;;;;;;;4.00;4.00;;;;;29.23;32.63;101436.81;5097786;27;46313;-80
2023/07/22 07:47:05;;;;;;;;;4.00;4.00;;;;;29.26;32.38;101431.03;5097717;27;48368;-79
2023/07/22 07:49:31;;;;;;;;;4.33;4.33;;;;;29.25;32.46;101419.50;5097937;27;45265;-80
2023/07/22 07:51:56;;;;;;;;;5.00;4.00;;;;;29.29;32.22;101434.13;5097415;27;45508;-78
2023/07/22 07:54:21;;;;;;;;;4.00;3.00;;;;;29.10;32.29;101397.53;5096528;27;49004;-78
2023/07/22 07:56:47;;;;;;;;;4.00;4.00;;;;;29.29;32.21;101427.94;5097834;27;45492;-79
2023/07/22 07:59:12;;;;;;;;;3.00;3.00;;;;;29.32;32.05;101437.41;5097777;27;45384;-79
2023/07/22 08:01:41;;;;;;;;;3.00;3.00;;;;;29.22;32.07;101419.13;5097505;27;45354;-79
2023/07/22 08:04:07;;;;;;;;;3.00;2.67;;;;;29.36;32.12;101430.56;5097329;27;46326;-79
2023/07/22 08:06:33;;;;;;;;;2.67;2.67;;;;;29.16;32.15;101399.34;5097578;27;45412;-79
2023/07/22 08:08:58;;;;;;;;;4.00;4.00;;;;;29.28;32.65;101418.22;5097426;27;45471;-78
2023/07/22 08:11:24;;;;;;;;;2.67;2.00;;;;;29.17;32.58;101404.50;5097859;27;45509;-79
2023/07/22 08:13:51;;;;;;;;;4.00;4.00;;;;;29.24;31.99;101420.53;5097174;27;45444;-79
2023/07/22 08:16:16;;;;;;;;;4.33;3.00;;;;;29.26;32.70;101426.50;5097088;27;45387;-79
2023/07/22 08:18:41;;;;;;;;;2.33;2.00;;;;;28.96;32.28;101376.19;5097123;27;45341;-80
2023/07/22 08:21:07;;;;;;;;;3.00;3.00;;;;;29.10;32.59;101405.56;5097558;27;45380;-78
2023/07/22 08:23:33;;;;;;;;;4.00;4.00;;;;;29.20;32.71;101419.31;5096963;27;46105;-78
2023/07/22 08:25:59;;;;;;;;;2.00;2.00;;;;;29.19;32.35;101420.38;5097279;27;45385;-78
2023/07/22 08:28:25;;;;;;;;;3.00;3.00;;;;;29.19;32.92;101423.06;5097227;27;45353;-79
2023/07/22 08:30:54;;;;;;;;;4.00;4.00;;;;;29.14;32.64;101420.19;5096759;27;45561;-75
2023/07/22 08:33:20;;;;;;;;;3.33;2.67;;;;;29.18;32.50;101438.28;5096851;27;46176;-74
2023/07/22 08:35:47;;;;;;;;;5.00;5.00;;;;;29.02;32.47;101409.28;5096830;27;45289;-75
2023/07/22 08:38:12;;;;;;;;;4.67;4.67;;;;;29.12;32.62;101416.91;5097131;27;45269;-75
2023/07/22 08:40:41;;;;;;;;;3.00;3.00;;;;;29.14;32.44;101412.16;5096816;27;45536;-78
2023/07/22 08:43:08;;;;;;;;;3.00;1.33;;;;;29.10;32.46;101417.09;5096904;27;46644;-77
2023/07/22 08:45:38;;;;;;;;;3.33;3.33;;;;;29.12;32.48;101420.38;5096243;27;45391;-76
2023/07/22 08:48:09;;;;;;;;;4.00;4.00;;;;;28.87;32.73;101374.78;5096755;27;45352;-75
2023/07/22 08:50:43;;;;;;;;;5.00;4.00;;;;;29.07;32.81;101412.97;5096469;27;45525;-74
2023/07/22 08:53:10;;;;;;;;;1.67;1.67;;;;;29.13;32.98;101423.91;5096344;27;45703;-73
2023/07/22 08:55:39;;;;;;;;;3.00;2.00;;;;;29.08;31.57;101411.13;5096660;27;45585;-75
2023/07/22 08:58:08;;;;;;;;;1.67;1.33;;;;;29.04;31.08;101424.13;5095870;27;45345;-74
2023/07/22 09:00:34;;;;;;;;;1.67;1.00;;;;;28.81;31.03;101400.53;5088599;27;45533;-75
2023/07/22 09:03:00;;;;;;;;;3.00;1.00;;;;;28.76;30.62;101401.19;5089569;27;47332;-74
2023/07/22 09:05:26;;;;;;;;;1.00;1.00;;;;;28.53;31.02;101397.16;5095331;27;45492;-74
2023/07/22 09:07:52;;;;;;;;;2.00;2.00;;;;;28.57;30.27;101425.16;5095598;27;45361;-74
2023/07/22 09:10:19;;;;;;;;;0.00;0.00;;;;;28.44;30.25;101425.16;5095670;27;45307;-74
2023/07/22 09:12:45;;;;;;;;;0.33;0.33;;;;;28.32;30.66;101417.78;5094178;27;46241;-74
2023/07/22 09:15:12;;;;;;;;;0.00;0.00;;;;;27.79;30.61;101382.03;5095181;27;45453;-73
2023/07/22 09:17:41;;;;;;;;;5.67;5.67;;;;;28.05;30.54;101425.88;5095067;27;45385;-73
2023/07/22 09:20:07;;;;;;;;;2.00;2.00;;;;;27.94;30.96;101433.50;5094967;27;45659;-72
2023/07/22 09:22:33;;;;;;;;;1.00;1.00;;;;;27.82;30.59;101425.25;5094999;27;45632;-73
2023/07/22 09:25:21;;;;;;;;;2.00;1.00;;;;;27.67;30.52;101404.03;5091223;27;45565;-71
2023/07/22 09:27:51;;;;;;;;;1.00;1.00;;;;;27.67;30.72;101421.94;5094920;27;45396;-72
2023/07/22 09:30:33;;;;;;;;;2.00;1.67;;;;;27.60;30.52;101425.44;5095306;27;45225;-72
2023/07/22 09:32:59;;;;;;;;;1.67;0.00;;;;;27.26;30.86;101387.16;5095561;27;45449;-72
2023/07/22 09:35:28;;;;;;;;;1.33;1.33;;;;;27.39;31.07;101408.56;5095439;27;45378;-73
2023/07/22 09:37:54;;;;;;;;;1.33;0.33;;;;;27.44;30.55;101423.97;5095285;27;45291;-72
2023/07/22 09:40:24;;;;;;;;;2.00;0.00;;;;;27.43;31.32;101424.19;5093957;27;45485;-73
2023/07/22 09:42:51;;;;;;;;;1.00;0.00;;;;;27.42;30.43;101427.88;5094826;27;45427;-72
2023/07/22 09:45:18;;;;;;;;;1.67;1.00;;;;;27.42;31.34;101430.53;5095519;27;45472;-72
2023/07/22 09:47:47;;;;;;;;;1.00;1.00;;;;;27.40;31.05;101423.53;5096061;27;45352;-72
2023/07/22 09:50:16;;;;;;;;;1.00;0.00;;;;;26.73;30.92;101323.53;5095799;27;45416;-73
2023/07/22 09:52:46;;;;;;;;;0.00;0.00;;;;;27.17;30.97;101379.31;5094832;27;46607;-72
2023/07/22 09:55:12;;;;;;;;;4.33;0.33;;;;;27.36;31.14;101413.47;5095158;27;45515;-72
2023/07/22 09:57:43;;;;;;;;;1.33;1.00;;;;;27.31;31.25;101399.91;5094842;27;45381;-73
2023/07/22 10:00:10;;;;;;;;;0.00;0.00;;;;;27.01;30.99;101372.47;5095156;27;45375;-72
2023/07/22 10:02:39;;;;;;;;;2.00;1.00;;;;;27.28;31.19;101412.63;5094708;27;45525;-72
2023/07/22 10:05:07;;;;;;;;;0.00;0.00;;;;;26.41;30.53;101286.66;5095109;27;45415;-72
2023/07/22 10:07:33;;;;;;;;;1.00;1.00;;;;;27.20;31.22;101412.00;5095015;27;45500;-71
2023/07/22 10:09:59;;;;;;;;;1.00;1.00;;;;;27.14;31.02;101400.28;5094919;27;45556;-73
2023/07/22 10:12:27;;;;;;;;;1.00;1.00;;;;;27.07;30.69;101385.03;5094515;27;46141;-73
2023/07/22 10:14:53;;;;;;;;;0.67;0.67;;;;;27.11;31.62;101406.00;5094752;27;45414;-73
2023/07/22 10:17:19;;;;;;;;;1.00;1.00;;;;;27.05;31.17;101399.59;5094678;27;45421;-74
2023/07/22 10:19:44;;;;;;;;;0.67;0.67;;;;;26.70;31.22;101339.16;5098730;27;45531;-74
2023/07/22 10:22:11;;;;;;;;;0.67;0.67;;;;;26.91;31.77;101375.53;5098777;27;45947;-72
2023/07/22 10:24:40;;;;;;;;;3.00;1.00;;;;;26.91;31.77;101383.53;5098101;27;45449;-74
2023/07/22 10:27:07;;;;;;;;;1.00;1.00;;;;;27.01;31.85;101395.72;5097968;27;45275;-74
2023/07/22 10:29:33;;;;;;;;;0.67;0.67;;;;;26.87;31.94;101376.13;5098343;27;45339;-73
2023/07/22 10:31:59;;;;;;;;;0.00;0.00;;;;;27.03;32.11;101399.81;5096589;27;47615;-75
2023/07/22 10:34:24;;;;;;;;;1.00;1.00;;;;;27.07;31.82;101395.72;5098166;27;45489;-73
2023/07/22 10:36:50;;;;;;;;;2.00;1.00;;;;;27.02;32.19;101376.81;5098641;27;45713;-74
2023/07/22 10:39:26;;;;;;;;;1.00;1.00;;;;;27.22;32.17;101380.59;5098667;27;45325;-72
2023/07/22 10:42:00;;;;;;;;;0.00;0.00;;;;;26.98;32.48;101335.50;5098420;27;46370;-73
2023/07/22 10:44:26;;;;;;;;;3.00;2.00;;;;;27.11;32.39;101348.06;5098718;27;45449;-73
2023/07/22 10:46:59;;;;;;;;;4.00;2.00;;;;;27.18;32.43;101329.41;5098849;27;45245;-72
2023/07/22 10:49:41;;;;;;;;;2.00;1.00;;;;;27.50;31.57;101380.41;5098720;27;45389;-72
2023/07/22 10:52:07;;;;;;;;;2.00;0.67;;;;;27.51;31.66;101376.69;5097973;27;46156;-72
2023/07/22 10:54:35;;;;;;;;;3.00;2.00;;;;;26.98;31.99;101297.31;5098057;27;45474;-71
2023/07/22 10:57:26;;;;;;;;;2.00;2.00;;;;;27.33;31.60;101344.41;5098665;27;45472;-72
2023/07/22 10:59:52;;;;;;;;;2.00;1.00;;;;;27.47;31.64;101370.13;5098320;27;45345;-72
2023/07/22 11:02:28;;;;;;;;;2.00;2.00;;;;;27.45;31.55;101358.00;5098242;27;47106;-72
2023/07/22 11:04:59;;;;;;;;;1.00;1.00;;;;;27.23;32.03;101336.81;5098213;27;45387;-72
2023/07/22 11:07:31;;;;;;;;;2.00;2.00;;;;;27.46;31.51;101360.44;5098574;27;45452;-72
2023/07/22 11:09:56;;;;;;;;;1.67;1.67;;;;;27.25;31.62;101322.22;5097891;27;45413;-72
2023/07/22 11:12:25;;;;;;;;;2.00;2.00;;;;;27.44;32.12;101334.97;5097985;27;45503;-72
2023/07/22 11:14:51;;;;;;;;;3.00;3.00;;;;;27.51;32.22;101343.78;5098134;27;45291;-72
2023/07/22 11:17:18;;;;;;;;;2.67;2.00;;;;;27.52;31.80;101338.25;5098069;27;45518;-72
2023/07/22 11:19:45;;;;;;;;;2.00;2.00;;;;;27.59;31.24;101340.09;5098072;27;45502;-72
2023/07/22 11:22:10;;;;;;;;;1.00;1.00;;;;;27.20;31.56;101268.59;5097993;27;47133;-72